createdAt,value
2023-02-19T00:00:59.753Z,11.79
2023-02-19T00:04:06.180Z,11.81
2023-02-19T00:07:10.768Z,11.94
2023-02-19T00:10:13.758Z,11.70
2023-02-19T00:13:16.857Z,11.81
2023-02-19T00:16:25.056Z,11.86
2023-02-19T00:19:33.031Z,11.82
2023-02-19T00:22:38.928Z,11.57
2023-02-19T00:25:45.383Z,11.80
2023-02-19T00:28:55.746Z,11.85
2023-02-19T00:31:58.951Z,11.85
2023-02-19T00:35:05.026Z,11.68
2023-02-19T00:38:08.231Z,11.42
2023-02-19T00:41:21.777Z,11.54
2023-02-19T00:44:25.186Z,11.51
2023-02-19T00:47:27.583Z,11.67
2023-02-19T00:50:30.925Z,11.73
2023-02-19T00:53:33.490Z,11.73
2023-02-19T00:56:36.298Z,11.61
2023-02-19T00:59:39.273Z,11.75
2023-02-19T01:02:42.670Z,11.77
2023-02-19T01:05:45.224Z,11.54
2023-02-19T01:08:47.834Z,11.46
2023-02-19T01:11:52.344Z,11.47
2023-02-19T01:14:55.537Z,11.61
2023-02-19T01:17:58.356Z,11.81
2023-02-19T01:21:14.880Z,11.77
2023-02-19T01:24:17.944Z,11.69
2023-02-19T01:27:20.612Z,11.82
2023-02-19T01:30:26.015Z,12.00
2023-02-19T01:33:34.050Z,11.81
2023-02-19T01:36:39.317Z,11.92
2023-02-19T01:39:42.705Z,11.84
2023-02-19T01:42:45.605Z,11.79
2023-02-19T01:45:57.193Z,11.67
2023-02-19T01:49:21.492Z,11.67
2023-02-19T01:52:32.229Z,11.61
2023-02-19T01:55:35.723Z,11.49
2023-02-19T01:58:39.421Z,11.42
2023-02-19T02:01:42.687Z,11.24
2023-02-19T02:08:34.636Z,11.32
2023-02-19T02:11:58.489Z,11.06
2023-02-19T02:15:01.890Z,11.21
2023-02-19T02:18:22.811Z,11.34
2023-02-19T02:22:04.597Z,11.27
2023-02-19T02:25:16.477Z,11.29
2023-02-19T02:28:49.802Z,11.03
2023-02-19T02:32:32.010Z,11.04
2023-02-19T02:35:43.181Z,11.40
2023-02-19T02:38:47.578Z,11.38
2023-02-19T02:42:15.145Z,11.38
2023-02-19T02:45:35.427Z,11.40
2023-02-19T02:48:46.862Z,11.38
2023-02-19T02:51:54.989Z,11.33
2023-02-19T02:55:03.938Z,11.43
2023-02-19T02:58:09.158Z,11.42
2023-02-19T03:01:38.848Z,11.40
2023-02-19T03:05:11.519Z,11.32
2023-02-19T03:08:48.527Z,11.37
2023-02-19T03:12:13.319Z,11.46
2023-02-19T03:15:41.240Z,11.41
2023-02-19T03:19:09.389Z,11.29
2023-02-19T03:22:22.176Z,11.63
2023-02-19T03:25:57.284Z,11.47
2023-02-19T03:29:23.669Z,11.30
2023-02-19T03:32:32.386Z,11.10
2023-02-19T03:35:47.755Z,11.24
2023-02-19T03:39:03.776Z,11.34
2023-02-19T03:42:26.543Z,11.35
2023-02-19T03:46:07.869Z,11.27
2023-02-19T03:49:30.910Z,11.22
2023-02-19T03:53:21.788Z,11.15
2023-02-19T03:57:00.986Z,11.18
2023-02-19T04:00:11.283Z,10.89
2023-02-19T04:03:39.377Z,11.18
2023-02-19T04:06:45.265Z,11.24
2023-02-19T04:09:58.450Z,11.31
2023-02-19T04:13:12.441Z,11.19
2023-02-19T04:16:28.495Z,11.15
2023-02-19T04:19:40.096Z,11.27
2023-02-19T04:22:46.633Z,11.11
2023-02-19T04:25:53.686Z,11.18
2023-02-19T04:28:57.143Z,11.29
2023-02-19T04:32:04.897Z,11.09
2023-02-19T04:35:16.236Z,10.95
2023-02-19T04:38:19.406Z,11.07
2023-02-19T04:41:25.659Z,11.08
2023-02-19T04:44:28.829Z,10.80
2023-02-19T04:47:34.784Z,10.78
2023-02-19T04:50:46.639Z,11.04
2023-02-19T04:53:53.406Z,11.09
2023-02-19T04:56:58.014Z,11.09
2023-02-19T05:00:00.927Z,10.85
2023-02-19T05:03:03.852Z,11.05
2023-02-19T05:06:09.282Z,11.26
2023-02-19T05:09:11.966Z,11.20
2023-02-19T05:12:14.620Z,11.11
2023-02-19T05:15:18.418Z,10.98
2023-02-19T05:18:20.752Z,10.45
2023-02-19T05:21:24.138Z,10.67
2023-02-19T05:24:28.151Z,10.68
2023-02-19T05:27:31.733Z,10.65
2023-02-19T05:30:36.063Z,10.63
2023-02-19T05:33:39.521Z,10.69
2023-02-19T05:36:42.173Z,10.75
2023-02-19T05:39:45.336Z,10.75
2023-02-19T05:42:48.612Z,10.90
2023-02-19T05:46:00.206Z,11.09
2023-02-19T05:49:03.591Z,10.67
2023-02-19T05:52:06.438Z,10.66
2023-02-19T05:55:12.999Z,10.62
2023-02-19T05:58:18.040Z,10.51
2023-02-19T06:01:28.596Z,10.46
2023-02-19T06:04:31.358Z,10.49
2023-02-19T06:07:35.447Z,10.55
2023-02-19T06:10:41.597Z,10.39
2023-02-19T06:13:45.562Z,10.08
2023-02-19T06:16:48.152Z,10.09
2023-02-19T06:19:50.897Z,10.05
2023-02-19T06:22:53.772Z,9.85
2023-02-19T06:26:09.676Z,10.02
2023-02-19T06:29:12.294Z,10.06
2023-02-19T06:32:17.086Z,9.99
2023-02-19T06:35:19.830Z,9.77
2023-02-19T06:38:22.780Z,9.57
2023-02-19T06:41:26.368Z,9.76
2023-02-19T06:44:29.221Z,9.94
2023-02-19T06:47:33.017Z,9.69
2023-02-19T06:50:35.488Z,9.75
2023-02-19T06:53:38.128Z,9.69
2023-02-19T06:56:42.149Z,9.54
2023-02-19T06:59:45.111Z,9.49
2023-02-19T07:02:47.459Z,9.61
2023-02-19T07:05:50.040Z,9.55
2023-02-19T07:08:53.312Z,9.62
2023-02-19T07:11:55.903Z,9.81
2023-02-19T07:14:59.972Z,9.49
2023-02-19T07:18:02.933Z,9.44
2023-02-19T07:21:12.542Z,9.54
2023-02-19T07:24:15.418Z,9.20
2023-02-19T07:27:18.030Z,9.27
2023-02-19T07:30:26.155Z,9.24
2023-02-19T07:33:32.021Z,9.21
2023-02-19T07:36:34.858Z,9.29
2023-02-19T07:39:37.666Z,9.16
2023-02-19T07:42:40.771Z,9.13
2023-02-19T07:45:45.928Z,9.30
2023-02-19T07:48:52.117Z,9.39
2023-02-19T07:51:56.724Z,9.28
2023-02-19T07:55:05.004Z,9.16
2023-02-19T07:58:07.988Z,9.40
2023-02-19T08:01:40.850Z,9.67
2023-02-19T08:04:43.702Z,9.59
2023-02-19T08:07:46.264Z,9.85
2023-02-19T08:11:08.851Z,9.51
2023-02-19T08:14:12.057Z,9.51
2023-02-19T08:17:15.304Z,9.43
2023-02-19T08:20:21.593Z,9.49
2023-02-19T08:23:28.079Z,9.73
2023-02-19T08:26:31.730Z,9.36
2023-02-19T08:29:35.422Z,9.57
2023-02-19T08:32:38.927Z,9.49
2023-02-19T08:35:47.213Z,9.49
2023-02-19T08:38:53.545Z,9.64
2023-02-19T08:42:02.894Z,9.69
2023-02-19T08:45:10.557Z,9.91
2023-02-19T08:48:14.138Z,10.24
2023-02-19T08:51:17.393Z,10.24
2023-02-19T08:54:24.180Z,10.19
2023-02-19T08:57:33.197Z,10.44
2023-02-19T09:00:42.202Z,10.51
2023-02-19T09:03:45.476Z,10.43
2023-02-19T09:06:51.312Z,10.38
2023-02-19T09:09:55.627Z,10.30
2023-02-19T09:13:01.249Z,10.33
2023-02-19T09:16:06.336Z,10.12
2023-02-19T09:19:09.736Z,10.33
2023-02-19T09:22:12.516Z,10.25
2023-02-19T09:25:15.908Z,10.22
2023-02-19T09:28:23.792Z,10.06
2023-02-19T09:31:27.374Z,10.06
2023-02-19T09:34:30.361Z,10.12
2023-02-19T09:37:35.773Z,9.97
2023-02-19T09:40:42.442Z,10.19
2023-02-19T09:43:45.640Z,10.23
2023-02-19T09:46:52.166Z,10.19
2023-02-19T09:50:04.243Z,10.20
2023-02-19T09:53:17.956Z,10.55
2023-02-19T09:56:20.830Z,10.76
2023-02-19T09:59:30.872Z,10.83
2023-02-19T10:02:33.888Z,10.86
2023-02-19T10:05:40.205Z,10.91
2023-02-19T10:08:49.252Z,10.73
2023-02-19T10:11:54.109Z,10.75
2023-02-19T10:15:04.777Z,10.94
2023-02-19T10:18:10.084Z,10.87
2023-02-19T10:21:25.812Z,11.06
2023-02-19T10:24:30.273Z,11.31
2023-02-19T10:27:33.076Z,11.39
2023-02-19T10:30:37.943Z,11.61
2023-02-19T10:33:52.586Z,11.70
2023-02-19T10:36:55.299Z,11.94
2023-02-19T10:39:57.577Z,12.16
2023-02-19T10:43:05.417Z,12.19
2023-02-19T10:46:15.393Z,12.14
2023-02-19T10:49:30.586Z,12.18
2023-02-19T10:52:36.491Z,12.27
2023-02-19T10:55:41.179Z,12.25
2023-02-19T10:58:45.260Z,12.34
2023-02-19T11:01:58.947Z,12.47
2023-02-19T11:05:15.473Z,12.65
2023-02-19T11:08:28.376Z,12.64
2023-02-19T11:11:40.448Z,13.04
2023-02-19T11:14:45.721Z,13.26
2023-02-19T11:18:02.287Z,13.47
2023-02-19T11:21:07.582Z,13.56
2023-02-19T11:24:31.124Z,13.71
2023-02-19T11:27:34.566Z,13.86
2023-02-19T11:30:39.699Z,13.85
2023-02-19T11:34:05.288Z,13.82
2023-02-19T11:37:28.480Z,13.93
2023-02-19T11:40:46.088Z,13.87
2023-02-19T11:44:14.817Z,14.07
2023-02-19T11:47:29.906Z,14.11
2023-02-19T11:50:51.867Z,14.19
2023-02-19T11:54:24.502Z,14.29
2023-02-19T11:57:41.099Z,14.39
2023-02-19T12:01:05.171Z,14.43
2023-02-19T12:04:32.149Z,14.58
2023-02-19T12:08:10.461Z,14.69
2023-02-19T12:11:54.021Z,14.76
2023-02-19T12:15:02.860Z,14.78
2023-02-19T12:18:38.344Z,14.74
2023-02-19T12:22:18.729Z,14.77
2023-02-19T12:25:33.438Z,14.73
2023-02-19T12:29:01.082Z,14.80
2023-02-19T12:32:39.419Z,14.92
2023-02-19T12:36:16.777Z,14.96
2023-02-19T12:39:38.069Z,15.09
2023-02-19T12:43:02.883Z,14.93
2023-02-19T12:46:21.784Z,14.90
2023-02-19T12:49:31.604Z,14.97
2023-02-19T12:52:46.879Z,15.20
2023-02-19T12:55:53.952Z,14.71
2023-02-19T12:59:11.408Z,13.15
2023-02-19T13:02:19.139Z,12.65
2023-02-19T13:05:38.259Z,12.14
2023-02-19T13:09:03.427Z,11.63
2023-02-19T13:12:26.070Z,11.04
2023-02-19T13:15:44.189Z,11.17
2023-02-19T13:18:58.130Z,11.44
2023-02-19T13:23:05.108Z,11.95
2023-02-19T13:26:19.615Z,12.30
2023-02-19T13:29:57.659Z,12.14
2023-02-19T13:33:12.151Z,12.30
2023-02-19T13:36:26.529Z,12.61
2023-02-19T13:39:31.124Z,12.70
2023-02-19T13:42:39.020Z,12.99
2023-02-19T13:45:44.856Z,13.04
2023-02-19T13:48:47.428Z,12.76
2023-02-19T13:51:57.015Z,12.66
2023-02-19T13:55:40.189Z,12.50
2023-02-19T13:58:56.914Z,12.22
2023-02-19T14:02:01.344Z,11.83
2023-02-19T14:05:10.747Z,11.41
2023-02-19T14:08:13.237Z,11.08
2023-02-19T14:11:48.521Z,10.87
2023-02-19T14:14:53.561Z,10.94
2023-02-19T14:17:57.185Z,10.96
2023-02-19T14:21:14.643Z,11.13
2023-02-19T14:24:18.287Z,11.07
2023-02-19T14:27:23.134Z,11.20
2023-02-19T14:30:28.596Z,11.26
2023-02-19T14:33:38.147Z,11.18
2023-02-19T14:36:50.555Z,11.21
2023-02-19T14:39:57.232Z,11.56
2023-02-19T14:43:01.250Z,11.64
2023-02-19T14:46:14.912Z,11.58
2023-02-19T14:49:33.934Z,11.55
2023-02-19T14:52:41.629Z,11.41
2023-02-19T14:55:48.816Z,11.57
2023-02-19T14:59:22.554Z,11.39
2023-02-19T15:02:27.782Z,11.12
2023-02-19T15:05:33.448Z,11.01
2023-02-19T15:08:48.605Z,11.00
2023-02-19T15:11:51.950Z,10.70
2023-02-19T15:14:59.995Z,10.82
2023-02-19T15:18:04.646Z,10.80
2023-02-19T15:21:08.751Z,11.01
2023-02-19T15:24:14.924Z,11.05
2023-02-19T15:27:24.641Z,10.79
2023-02-19T15:30:31.517Z,10.75
2023-02-19T15:33:35.393Z,10.92
2023-02-19T15:36:45.452Z,10.88
2023-02-19T15:39:56.167Z,10.71
2023-02-19T15:43:02.774Z,10.85
2023-02-19T15:46:15.989Z,10.58
2023-02-19T15:49:33.946Z,10.50
2023-02-19T15:52:59.414Z,10.80
2023-02-19T15:56:15.414Z,10.72
2023-02-19T15:59:29.893Z,10.67
2023-02-19T16:02:36.024Z,10.65
2023-02-19T16:05:40.577Z,10.77
2023-02-19T16:08:44.526Z,10.70
2023-02-19T16:11:54.033Z,10.77
2023-02-19T16:15:14.576Z,10.66
2023-02-19T16:18:17.856Z,10.80
2023-02-19T16:21:28.184Z,10.61
2023-02-19T16:24:37.405Z,10.77
2023-02-19T16:27:43.986Z,10.55
2023-02-19T16:30:47.363Z,10.54
2023-02-19T16:33:52.075Z,10.78
2023-02-19T16:36:55.031Z,10.70
2023-02-19T16:40:15.088Z,10.67
2023-02-19T16:43:37.944Z,10.53
2023-02-19T16:46:44.167Z,10.31
2023-02-19T16:49:46.862Z,9.88
2023-02-19T16:52:58.914Z,9.88
2023-02-19T16:56:01.682Z,9.81
2023-02-19T16:59:05.282Z,9.79
2023-02-19T17:02:15.963Z,9.72
2023-02-19T17:05:22.264Z,9.75
2023-02-19T17:08:38.250Z,9.61
2023-02-19T17:11:44.811Z,9.68
2023-02-19T17:14:47.995Z,9.62
2023-02-19T17:17:54.285Z,9.72
2023-02-19T17:21:21.341Z,9.62
2023-02-19T17:24:28.173Z,9.35
2023-02-19T17:27:33.025Z,9.73
2023-02-19T17:30:37.787Z,9.50
2023-02-19T17:33:53.671Z,9.77
2023-02-19T17:36:56.845Z,9.67
2023-02-19T17:39:59.708Z,9.62
2023-02-19T17:43:05.405Z,9.52
2023-02-19T17:46:09.988Z,9.73
2023-02-19T17:49:13.326Z,9.66
2023-02-19T17:52:21.790Z,9.57
2023-02-19T17:55:26.050Z,9.46
2023-02-19T17:58:31.103Z,9.59
2023-02-19T18:01:34.438Z,9.77
2023-02-19T18:04:40.145Z,9.60
2023-02-19T18:07:46.595Z,9.71
2023-02-19T18:10:51.537Z,9.81
2023-02-19T18:13:54.830Z,9.70
2023-02-19T18:16:57.426Z,9.63
2023-02-19T18:20:05.161Z,9.57
2023-02-19T18:23:09.735Z,9.68
2023-02-19T18:26:14.484Z,9.58
2023-02-19T18:29:18.686Z,9.61
2023-02-19T18:32:24.694Z,9.67
2023-02-19T18:35:28.074Z,9.57
2023-02-19T18:38:34.465Z,9.30
2023-02-19T18:41:37.839Z,9.47
2023-02-19T18:44:42.116Z,9.42
2023-02-19T18:47:53.603Z,9.44
2023-02-19T18:51:07.084Z,9.27
2023-02-19T18:54:13.266Z,9.43
2023-02-19T18:57:16.746Z,9.35
2023-02-19T19:00:25.872Z,9.13
2023-02-19T19:03:38.561Z,9.28
2023-02-19T19:06:41.500Z,9.23
2023-02-19T19:09:44.398Z,9.29
2023-02-19T19:12:47.342Z,9.11
2023-02-19T19:15:53.355Z,9.26
2023-02-19T19:18:57.632Z,9.28
2023-02-19T19:22:06.795Z,9.18
2023-02-19T19:25:15.700Z,9.00
2023-02-19T19:28:19.847Z,9.01
2023-02-19T19:31:23.163Z,8.93
2023-02-19T19:34:28.755Z,9.07
2023-02-19T19:37:32.562Z,8.89
2023-02-19T19:40:38.397Z,8.75
2023-02-19T19:43:40.949Z,8.59
2023-02-19T19:46:46.160Z,8.39
2023-02-19T19:49:48.523Z,8.62
2023-02-19T19:52:51.807Z,8.69
2023-02-19T19:55:55.003Z,8.63
2023-02-19T19:58:59.360Z,8.46
2023-02-19T20:02:05.448Z,8.46
2023-02-19T20:05:16.998Z,8.34
2023-02-19T20:08:19.763Z,8.50
2023-02-19T20:11:23.050Z,8.53
2023-02-19T20:14:26.737Z,8.47
2023-02-19T20:17:30.531Z,8.55
2023-02-19T20:20:33.571Z,8.35
2023-02-19T20:23:42.305Z,8.38
2023-02-19T20:26:45.650Z,8.56
2023-02-19T20:29:49.386Z,8.62
2023-02-19T20:32:52.035Z,8.40
2023-02-19T20:35:57.139Z,8.35
2023-02-19T20:39:00.052Z,8.27
2023-02-19T20:42:03.174Z,8.23
2023-02-19T20:45:06.446Z,8.23
2023-02-19T20:48:09.119Z,8.44
2023-02-19T20:51:12.036Z,8.50
2023-02-19T20:54:17.777Z,8.49
2023-02-19T20:57:20.213Z,8.26
2023-02-19T21:00:26.672Z,8.30
2023-02-19T21:03:30.579Z,8.03
2023-02-19T21:06:33.555Z,8.02
2023-02-19T21:09:36.844Z,7.67
2023-02-19T21:12:39.755Z,7.82
2023-02-19T21:15:42.521Z,7.93
2023-02-19T21:18:45.306Z,7.84
2023-02-19T21:21:48.003Z,7.54
2023-02-19T21:24:53.321Z,7.59
2023-02-19T21:27:56.257Z,7.27
2023-02-19T21:30:59.426Z,7.39
2023-02-19T21:34:04.984Z,7.17
2023-02-19T21:37:08.073Z,6.94
2023-02-19T21:40:12.790Z,6.97
2023-02-19T21:43:20.171Z,6.91
2023-02-19T21:46:26.886Z,6.55
2023-02-19T21:49:30.368Z,6.53
2023-02-19T21:52:33.453Z,6.39
2023-02-19T21:55:38.619Z,6.45
2023-02-19T21:58:46.800Z,6.48
2023-02-19T22:01:50.859Z,6.43
2023-02-19T22:04:56.474Z,6.41
2023-02-19T22:08:00.414Z,6.35
2023-02-19T22:11:07.069Z,6.05
2023-02-19T22:14:12.927Z,6.20
2023-02-19T22:17:16.124Z,5.99
2023-02-19T22:20:22.705Z,6.20
2023-02-19T22:23:26.070Z,6.03
2023-02-19T22:26:36.035Z,6.19
2023-02-19T22:30:06.992Z,6.06
2023-02-19T22:33:10.522Z,5.84
2023-02-19T22:36:19.874Z,5.95
2023-02-19T22:39:27.615Z,5.76
2023-02-19T22:42:30.801Z,5.90
2023-02-19T22:45:33.915Z,5.88
2023-02-19T22:48:36.607Z,5.55
2023-02-19T22:51:39.397Z,5.85
2023-02-19T22:54:41.982Z,5.57
2023-02-19T22:57:44.620Z,5.87
2023-02-19T23:00:49.765Z,5.83
2023-02-19T23:04:01.547Z,5.86
2023-02-19T23:07:06.519Z,5.70
2023-02-19T23:10:09.713Z,5.88
2023-02-19T23:13:12.390Z,5.71
2023-02-19T23:16:15.353Z,5.71
2023-02-19T23:19:18.243Z,5.61
2023-02-19T23:22:21.302Z,5.40
2023-02-19T23:25:27.979Z,5.42
2023-02-19T23:28:31.136Z,5.54
2023-02-19T23:31:34.096Z,5.29
2023-02-19T23:34:36.787Z,5.50
2023-02-19T23:37:40.037Z,5.51
2023-02-19T23:40:43.610Z,5.20
2023-02-19T23:43:46.070Z,5.44
2023-02-19T23:46:49.268Z,5.35
2023-02-19T23:49:52.356Z,5.43
2023-02-19T23:52:57.544Z,5.28
2023-02-19T23:56:00.226Z,5.19
2023-02-19T23:59:06.376Z,5.46
